createdAt,value
2018-05-26T00:01:26.215Z,79.10
2018-05-26T00:03:54.491Z,79.40
2018-05-26T00:06:22.781Z,79.50
2018-05-26T00:08:51.020Z,79.40
2018-05-26T00:11:19.260Z,79.50
2018-05-26T00:13:47.601Z,79.80
2018-05-26T00:16:15.861Z,79.80
2018-05-26T00:18:44.160Z,79.70
2018-05-26T00:21:12.420Z,79.80
2018-05-26T00:23:40.656Z,80.00
2018-05-26T00:26:09.671Z,80.40
2018-05-26T00:28:37.963Z,80.40
2018-05-26T00:31:06.207Z,80.50
2018-05-26T00:33:35.246Z,80.70
2018-05-26T00:36:03.505Z,80.70
2018-05-26T00:38:31.791Z,80.80
2018-05-26T00:41:00.047Z,80.90
2018-05-26T00:43:28.340Z,81.10
2018-05-26T00:45:56.608Z,81.10
2018-05-26T00:48:25.188Z,81.20
2018-05-26T00:50:53.423Z,81.40
2018-05-26T00:53:22.430Z,81.60
2018-05-26T00:55:51.450Z,81.60
2018-05-26T00:58:19.712Z,81.60
2018-05-26T01:00:47.999Z,81.80
2018-05-26T01:03:16.295Z,81.70
2018-05-26T01:05:44.561Z,81.80
2018-05-26T01:08:12.953Z,82.00
2018-05-26T01:10:41.200Z,82.20
2018-05-26T01:13:09.439Z,82.20
2018-05-26T01:15:38.494Z,82.30
2018-05-26T01:18:06.754Z,82.30
2018-05-26T01:20:35.020Z,83.00
2018-05-26T01:23:03.279Z,82.80
2018-05-26T01:25:31.513Z,83.70
2018-05-26T01:27:59.769Z,84.20
2018-05-26T01:30:28.025Z,84.30
2018-05-26T01:32:56.278Z,84.20
2018-05-26T01:35:24.593Z,84.30
2018-05-26T01:37:52.849Z,84.60
2018-05-26T01:40:21.099Z,84.50
2018-05-26T01:42:49.772Z,85.20
2018-05-26T01:45:18.813Z,85.30
2018-05-26T01:47:47.124Z,85.30
2018-05-26T01:50:15.366Z,85.50
2018-05-26T01:52:43.621Z,85.50
2018-05-26T01:55:11.864Z,85.60
2018-05-26T01:57:40.909Z,85.70
2018-05-26T02:00:09.178Z,85.60
2018-05-26T02:02:37.431Z,85.80
2018-05-26T02:05:05.684Z,85.70
2018-05-26T02:07:34.721Z,85.50
2018-05-26T02:10:02.973Z,85.50
2018-05-26T02:12:31.284Z,85.50
2018-05-26T02:14:59.523Z,86.20
2018-05-26T02:17:27.816Z,85.80
2018-05-26T02:19:56.075Z,86.00
2018-05-26T02:22:24.382Z,86.10
2018-05-26T02:24:52.630Z,86.00
2018-05-26T02:27:20.931Z,86.10
2018-05-26T02:29:49.204Z,86.50
2018-05-26T02:32:17.457Z,86.70
2018-05-26T02:34:45.743Z,86.50
2018-05-26T02:37:14.010Z,86.60
2018-05-26T02:39:42.251Z,86.60
2018-05-26T02:42:11.266Z,86.70
2018-05-26T02:44:39.530Z,86.60
2018-05-26T02:47:08.535Z,87.00
2018-05-26T02:49:36.797Z,87.00
2018-05-26T02:52:05.822Z,86.90
2018-05-26T02:54:34.104Z,86.80
2018-05-26T02:57:02.386Z,87.20
2018-05-26T02:59:30.642Z,87.10
2018-05-26T03:01:58.889Z,88.20
2018-05-26T03:04:33.722Z,88.00
2018-05-26T03:07:07.625Z,88.00
2018-05-26T03:09:42.432Z,88.50
2018-05-26T03:12:16.395Z,88.50
2018-05-26T03:14:47.128Z,88.70
2018-05-26T03:17:21.007Z,89.10
2018-05-26T03:19:50.049Z,89.20
2018-05-26T03:22:18.310Z,89.10
2018-05-26T03:24:46.560Z,89.00
2018-05-26T03:27:14.874Z,88.90
2018-05-26T03:29:43.145Z,88.90
2018-05-26T03:32:11.424Z,89.10
2018-05-26T03:34:39.692Z,89.10
2018-05-26T03:37:07.946Z,88.70
2018-05-26T03:39:36.201Z,88.70
2018-05-26T03:42:05.207Z,88.40
2018-05-26T03:44:33.477Z,88.40
2018-05-26T03:47:03.357Z,88.10
2018-05-26T03:49:31.690Z,87.40
2018-05-26T03:51:59.972Z,86.60
2018-05-26T03:57:42.785Z,84.60
2018-05-26T04:00:11.079Z,83.60
2018-05-26T04:02:39.315Z,82.60
2018-05-26T04:05:08.342Z,80.60
2018-05-26T04:07:36.603Z,80.60
2018-05-26T04:10:06.221Z,78.90
2018-05-26T04:12:34.456Z,78.90
2018-05-26T04:15:02.703Z,77.60
2018-05-26T04:17:30.948Z,76.00
2018-05-26T04:19:59.196Z,74.50
2018-05-26T04:22:29.106Z,72.40
2018-05-26T04:24:57.424Z,72.40
2018-05-26T04:27:25.691Z,71.40
2018-05-26T04:29:53.949Z,69.60
2018-05-26T04:32:22.190Z,67.80
2018-05-26T04:34:50.529Z,66.80
2018-05-26T04:37:18.806Z,65.00
2018-05-26T04:39:47.085Z,63.80
2018-05-26T04:42:15.329Z,64.00
2018-05-26T04:44:44.075Z,64.00
2018-05-26T04:47:12.297Z,61.00
2018-05-26T04:49:40.590Z,59.20
2018-05-26T04:52:08.833Z,56.90
2018-05-26T04:54:37.853Z,57.20
2018-05-26T04:57:06.137Z,57.80
2018-05-26T04:59:34.377Z,56.30
2018-05-26T05:02:02.685Z,56.50
2018-05-26T05:04:30.961Z,55.70
2018-05-26T05:06:59.211Z,54.30
2018-05-26T05:09:27.461Z,54.20
2018-05-26T05:11:56.481Z,52.50
2018-05-26T05:14:24.730Z,52.50
2018-05-26T05:16:53.740Z,53.60
2018-05-26T05:19:22.045Z,53.60
2018-05-26T05:21:50.287Z,52.70
2018-05-26T05:24:18.592Z,51.70
2018-05-26T05:26:46.852Z,50.30
2018-05-26T05:29:15.849Z,45.30
2018-05-26T05:31:44.127Z,45.30
2018-05-26T05:34:12.407Z,43.80
2018-05-26T05:36:40.679Z,42.50
2018-05-26T05:39:08.906Z,40.50
2018-05-26T05:41:37.157Z,39.50
2018-05-26T05:44:05.405Z,38.00
2018-05-26T05:46:33.661Z,37.80
2018-05-26T05:49:01.976Z,35.50
2018-05-26T05:51:30.213Z,33.80
2018-05-26T05:53:58.511Z,33.60
2018-05-26T05:56:26.761Z,32.40
2018-05-26T05:58:55.009Z,32.20
2018-05-26T06:01:23.254Z,32.10
2018-05-26T06:03:51.499Z,33.20
2018-05-26T06:06:19.743Z,32.20
2018-05-26T06:08:48.921Z,32.10
2018-05-26T06:11:17.283Z,32.10
2018-05-26T06:13:45.860Z,31.40
2018-05-26T06:16:14.093Z,30.60
2018-05-26T06:18:42.603Z,30.60
2018-05-26T06:21:11.015Z,30.70
2018-05-26T06:23:39.484Z,30.60
2018-05-26T06:26:07.719Z,30.70
2018-05-26T06:28:35.999Z,30.80
2018-05-26T06:31:04.235Z,31.60
2018-05-26T06:33:33.267Z,33.60
2018-05-26T06:36:01.544Z,33.60
2018-05-26T06:38:30.159Z,32.90
2018-05-26T06:40:58.447Z,31.70
2018-05-26T06:43:26.679Z,30.50
2018-05-26T06:45:55.196Z,30.00
2018-05-26T06:48:23.425Z,30.00
2018-05-26T06:50:51.707Z,29.10
2018-05-26T06:53:19.983Z,29.10
2018-05-26T06:55:48.235Z,29.00
2018-05-26T06:58:17.247Z,30.30
2018-05-26T07:00:45.488Z,30.20
2018-05-26T07:03:14.504Z,31.50
2018-05-26T07:05:42.752Z,31.50
2018-05-26T07:08:11.787Z,31.40
2018-05-26T07:10:40.027Z,31.40
2018-05-26T07:13:09.056Z,30.50
2018-05-26T07:15:37.337Z,30.40
2018-05-26T07:18:05.589Z,31.20
2018-05-26T07:20:33.879Z,32.80
2018-05-26T07:23:02.127Z,32.60
2018-05-26T07:25:31.147Z,34.30
2018-05-26T07:27:59.438Z,33.60
2018-05-26T07:30:27.697Z,34.40
2018-05-26T07:32:55.928Z,34.60
2018-05-26T07:35:24.984Z,35.40
2018-05-26T07:37:53.219Z,34.70
2018-05-26T07:40:21.464Z,34.90
2018-05-26T07:42:50.471Z,34.30
2018-05-26T07:45:19.493Z,34.50
2018-05-26T07:47:47.779Z,34.40
2018-05-26T07:50:16.042Z,35.00
2018-05-26T07:52:44.345Z,35.40
2018-05-26T07:55:12.650Z,34.20
2018-05-26T07:57:40.897Z,33.10
2018-05-26T08:00:09.150Z,33.70
2018-05-26T08:02:38.513Z,33.40
2018-05-26T08:05:07.525Z,34.50
2018-05-26T08:07:36.397Z,34.50
2018-05-26T08:10:04.630Z,35.70
2018-05-26T08:12:32.950Z,36.50
2018-05-26T08:15:01.374Z,35.80
2018-05-26T08:17:29.696Z,35.00
2018-05-26T08:19:57.923Z,34.80
2018-05-26T08:22:26.181Z,35.60
2018-05-26T08:24:54.471Z,37.40
2018-05-26T08:27:22.783Z,37.40
2018-05-26T08:29:51.767Z,40.40
2018-05-26T08:32:20.017Z,40.30
2018-05-26T08:34:48.269Z,40.50
2018-05-26T08:37:16.567Z,40.60
2018-05-26T08:39:44.893Z,40.70
2018-05-26T08:42:13.126Z,39.70
2018-05-26T08:44:41.379Z,41.70
2018-05-26T08:47:09.611Z,41.10
2018-05-26T08:49:38.863Z,39.70
2018-05-26T08:52:07.098Z,40.00
2018-05-26T08:54:36.119Z,41.00
2018-05-26T08:57:04.365Z,40.90
2018-05-26T08:59:33.366Z,42.10
2018-05-26T09:02:02.389Z,41.90
2018-05-26T09:04:30.633Z,41.90
2018-05-26T09:06:59.649Z,41.50
2018-05-26T09:09:27.949Z,41.50
2018-05-26T09:11:56.200Z,41.60
2018-05-26T09:14:24.439Z,42.20
2018-05-26T09:16:53.458Z,42.40
2018-05-26T09:19:21.765Z,42.40
2018-05-26T09:21:50.064Z,44.80
2018-05-26T09:24:18.247Z,43.90
2018-05-26T09:26:46.591Z,43.20
2018-05-26T09:29:14.864Z,42.50
2018-05-26T09:31:43.130Z,42.80
2018-05-26T09:34:11.376Z,43.20
2018-05-26T09:36:40.396Z,42.10
2018-05-26T09:39:08.645Z,42.10
2018-05-26T09:41:37.664Z,44.40
2018-05-26T09:44:05.915Z,44.40
2018-05-26T09:46:34.930Z,45.50
2018-05-26T09:49:03.253Z,45.50
2018-05-26T09:51:31.479Z,45.50
2018-05-26T09:53:59.719Z,46.60
2018-05-26T09:56:28.864Z,46.00
2018-05-26T09:58:57.136Z,46.00
2018-05-26T10:01:25.398Z,44.80
2018-05-26T10:03:53.693Z,44.10
2018-05-26T10:06:21.949Z,44.00
2018-05-26T10:08:50.238Z,43.90
2018-05-26T10:11:18.495Z,43.80
2018-05-26T10:13:46.745Z,43.50
2018-05-26T10:16:16.252Z,44.10
2018-05-26T10:18:45.275Z,44.60
2018-05-26T10:21:13.565Z,44.60
2018-05-26T10:23:41.811Z,44.20
2018-05-26T10:26:10.149Z,45.30
2018-05-26T10:28:38.363Z,47.20
2018-05-26T10:31:06.608Z,47.20
2018-05-26T10:33:36.459Z,46.20
2018-05-26T10:36:04.695Z,46.10
2018-05-26T10:38:33.717Z,48.70
2018-05-26T10:41:01.961Z,48.70
2018-05-26T10:43:30.293Z,48.90
2018-05-26T10:46:10.539Z,47.80
2018-05-26T10:48:38.797Z,47.60
2018-05-26T10:51:07.109Z,46.20
2018-05-26T10:53:35.387Z,45.80
2018-05-26T10:56:03.647Z,45.60
2018-05-26T10:58:31.922Z,45.90
2018-05-26T11:01:00.187Z,47.20
2018-05-26T11:03:28.434Z,45.00
2018-05-26T11:05:57.444Z,43.80
2018-05-26T11:08:25.739Z,43.70
2018-05-26T11:10:54.016Z,44.30
2018-05-26T11:13:22.300Z,43.10
2018-05-26T11:15:50.537Z,44.50
2018-05-26T11:18:19.565Z,44.80
2018-05-26T11:20:47.817Z,44.80
2018-05-26T11:23:16.073Z,45.60
2018-05-26T11:25:45.113Z,46.30
2018-05-26T11:28:13.366Z,45.60
2018-05-26T11:30:41.594Z,45.40
2018-05-26T11:33:09.971Z,44.00
2018-05-26T11:35:38.194Z,44.70
2018-05-26T11:38:06.439Z,44.90
2018-05-26T11:40:35.470Z,45.20
2018-05-26T11:43:03.945Z,45.10
2018-05-26T11:45:32.952Z,45.20
2018-05-26T11:48:01.338Z,45.20
2018-05-26T11:50:30.916Z,44.20
2018-05-26T11:52:59.897Z,43.80
2018-05-26T11:55:28.209Z,43.80
2018-05-26T11:57:56.451Z,44.80
2018-05-26T12:00:24.699Z,44.20
2018-05-26T12:02:53.123Z,45.70
2018-05-26T12:05:21.405Z,44.40
2018-05-26T12:07:49.643Z,43.70
2018-05-26T12:10:18.678Z,42.50
2018-05-26T12:12:46.953Z,42.50
2018-05-26T12:15:15.199Z,41.30
2018-05-26T12:17:43.441Z,42.40
2018-05-26T12:20:11.767Z,42.80
2018-05-26T12:22:40.017Z,43.40
2018-05-26T12:25:08.329Z,44.00
2018-05-26T12:27:36.614Z,43.50
2018-05-26T12:30:04.871Z,43.10
2018-05-26T12:32:33.261Z,40.20
2018-05-26T12:35:01.503Z,39.70
2018-05-26T12:37:29.735Z,39.00
2018-05-26T12:39:58.091Z,38.40
2018-05-26T12:42:26.348Z,38.20
2018-05-26T12:44:54.639Z,39.80
2018-05-26T12:47:22.911Z,39.30
2018-05-26T12:49:51.153Z,40.30
2018-05-26T12:52:19.455Z,40.70
2018-05-26T12:54:47.710Z,41.30
2018-05-26T12:57:16.048Z,41.80
2018-05-26T12:59:44.305Z,40.70
2018-05-26T13:02:12.534Z,40.10
2018-05-26T13:04:41.554Z,40.40
2018-05-26T13:07:09.833Z,41.20
2018-05-26T13:09:38.100Z,40.40
2018-05-26T13:12:06.389Z,39.00
2018-05-26T13:14:34.632Z,39.20
2018-05-26T13:17:02.927Z,40.00
2018-05-26T13:19:31.172Z,40.80
2018-05-26T13:22:00.195Z,43.00
2018-05-26T13:24:28.467Z,43.00
2018-05-26T13:26:56.723Z,42.70
2018-05-26T13:29:24.982Z,42.90
2018-05-26T13:31:53.221Z,41.90
2018-05-26T13:34:21.471Z,41.90
2018-05-26T13:36:49.743Z,43.00
2018-05-26T13:39:17.987Z,42.40
2018-05-26T13:41:47.000Z,41.30
2018-05-26T13:44:15.243Z,41.30
2018-05-26T13:46:44.254Z,40.70
2018-05-26T13:49:12.518Z,40.60
2018-05-26T13:51:40.752Z,41.70
2018-05-26T13:54:09.022Z,41.40
2018-05-26T13:56:37.262Z,39.50
2018-05-26T13:59:05.569Z,39.50
2018-05-26T14:01:33.875Z,39.60
2018-05-26T14:04:02.093Z,39.40
2018-05-26T14:06:30.393Z,39.50
2018-05-26T14:08:58.667Z,38.80
2018-05-26T14:11:26.921Z,37.80
2018-05-26T14:13:55.213Z,38.60
2018-05-26T14:16:23.467Z,37.60
2018-05-26T14:18:51.706Z,40.20
2018-05-26T14:21:19.953Z,38.80
2018-05-26T14:23:48.209Z,39.30
2018-05-26T14:26:16.451Z,39.30
2018-05-26T14:28:45.465Z,39.90
2018-05-26T14:31:14.591Z,39.90
2018-05-26T14:33:42.823Z,39.10
2018-05-26T14:36:11.164Z,40.00
2018-05-26T14:38:41.431Z,38.70
2018-05-26T14:41:09.725Z,40.10
2018-05-26T14:43:38.013Z,41.50
2018-05-26T14:46:06.252Z,41.10
2018-05-26T14:48:34.495Z,39.30
2018-05-26T14:51:02.755Z,39.60
2018-05-26T14:53:31.001Z,39.60
2018-05-26T14:55:59.372Z,39.50
2018-05-26T14:58:27.643Z,38.20
2018-05-26T15:00:55.884Z,37.50
2018-05-26T15:03:24.896Z,38.30
2018-05-26T15:05:53.127Z,38.30
2018-05-26T15:08:21.487Z,39.10
2018-05-26T15:10:49.739Z,38.80
2018-05-26T15:13:18.026Z,39.80
2018-05-26T15:15:46.272Z,38.90
2018-05-26T15:18:14.575Z,40.40
2018-05-26T15:20:42.821Z,39.80
2018-05-26T15:23:11.064Z,39.30
2018-05-26T15:25:39.396Z,39.60
2018-05-26T15:28:07.641Z,40.10
2018-05-26T15:30:36.643Z,40.50
2018-05-26T15:33:04.895Z,40.40
2018-05-26T15:35:33.940Z,39.50
2018-05-26T15:38:02.187Z,39.40
2018-05-26T15:40:30.495Z,39.80
2018-05-26T15:42:58.753Z,39.80
2018-05-26T15:45:26.998Z,40.40
2018-05-26T15:47:56.023Z,40.70
2018-05-26T15:50:24.269Z,40.70
2018-05-26T15:52:53.303Z,41.00
2018-05-26T15:55:21.548Z,41.00
2018-05-26T15:57:49.795Z,40.50
2018-05-26T16:00:18.121Z,41.40
2018-05-26T16:02:46.394Z,41.10
2018-05-26T16:05:14.675Z,40.80
2018-05-26T16:07:43.526Z,41.50
2018-05-26T16:10:12.561Z,40.90
2018-05-26T16:12:40.813Z,40.80
2018-05-26T16:15:09.112Z,41.40
2018-05-26T16:17:37.376Z,41.80
2018-05-26T16:20:05.612Z,40.90
2018-05-26T16:22:35.371Z,41.40
2018-05-26T16:25:03.610Z,41.40
2018-05-26T16:27:32.681Z,41.30
2018-05-26T16:30:01.022Z,42.10
2018-05-26T16:32:29.266Z,42.20
2018-05-26T16:34:57.509Z,41.00
2018-05-26T16:37:26.561Z,40.90
2018-05-26T16:39:54.809Z,41.40
2018-05-26T16:42:23.065Z,41.00
2018-05-26T16:44:52.075Z,41.40
2018-05-26T16:47:20.325Z,41.30
2018-05-26T16:49:49.359Z,41.10
2018-05-26T16:52:17.599Z,41.00
2018-05-26T16:54:46.621Z,41.70
2018-05-26T16:57:14.912Z,41.70
2018-05-26T16:59:43.182Z,42.10
2018-05-26T17:02:11.436Z,41.60
2018-05-26T17:04:39.689Z,41.90
2018-05-26T17:07:08.702Z,42.60
2018-05-26T17:09:37.858Z,42.50
2018-05-26T17:12:06.207Z,42.40
2018-05-26T17:14:34.460Z,42.20
2018-05-26T17:17:02.747Z,42.70
2018-05-26T17:19:31.019Z,42.80
2018-05-26T17:21:59.311Z,43.70
2018-05-26T17:24:27.601Z,43.30
2018-05-26T17:26:55.847Z,44.00
2018-05-26T17:29:24.101Z,44.10
2018-05-26T17:31:52.345Z,44.10
2018-05-26T17:34:20.598Z,44.20
2018-05-26T17:36:48.832Z,44.20
2018-05-26T17:39:17.075Z,44.20
2018-05-26T17:41:46.079Z,44.20
2018-05-26T17:44:15.151Z,44.00
2018-05-26T17:46:43.367Z,44.00
2018-05-26T17:49:11.626Z,44.50
2018-05-26T17:51:40.623Z,45.00
2018-05-26T17:54:08.937Z,45.00
2018-05-26T17:56:37.177Z,45.70
2018-05-26T17:59:05.475Z,45.60
2018-05-26T18:01:33.761Z,46.00
2018-05-26T18:04:01.999Z,45.60
2018-05-26T18:06:31.017Z,45.90
2018-05-26T18:08:59.295Z,45.90
2018-05-26T18:11:27.540Z,46.50
2018-05-26T18:13:56.544Z,51.20
2018-05-26T18:16:24.846Z,51.20
2018-05-26T18:18:53.091Z,52.30
2018-05-26T18:21:21.407Z,52.40
2018-05-26T18:23:49.650Z,52.40
2018-05-26T18:26:17.900Z,52.80
2018-05-26T18:28:46.941Z,53.30
2018-05-26T18:31:15.221Z,53.30
2018-05-26T18:33:43.467Z,53.40
2018-05-26T18:36:11.780Z,53.40
2018-05-26T18:38:40.019Z,53.50
2018-05-26T18:41:08.281Z,53.70
2018-05-26T18:43:37.275Z,54.20
2018-05-26T18:46:05.524Z,54.20
2018-05-26T18:48:33.861Z,54.50
2018-05-26T18:51:02.126Z,54.90
2018-05-26T18:53:30.355Z,55.10
2018-05-26T18:55:59.378Z,56.10
2018-05-26T18:58:27.683Z,55.40
2018-05-26T19:00:55.936Z,55.30
2018-05-26T19:03:25.054Z,55.40
2018-05-26T19:05:53.329Z,55.40
2018-05-26T19:08:21.573Z,55.50
2018-05-26T19:10:49.881Z,55.70
2018-05-26T19:13:18.115Z,55.80
2018-05-26T19:15:46.411Z,55.80
2018-05-26T19:18:14.691Z,55.90
2018-05-26T19:20:42.927Z,56.20
2018-05-26T19:23:11.954Z,56.40
2018-05-26T19:25:40.195Z,56.40
2018-05-26T19:28:09.217Z,56.70
2018-05-26T19:30:37.461Z,56.60
2018-05-26T19:33:06.475Z,56.60
2018-05-26T19:35:34.832Z,56.60
2018-05-26T19:38:03.055Z,56.70
2018-05-26T19:40:31.324Z,56.90
2018-05-26T19:42:59.608Z,56.90
2018-05-26T19:45:27.844Z,57.10
2018-05-26T19:47:56.861Z,57.70
2018-05-26T19:50:25.109Z,57.60
2018-05-26T19:52:54.115Z,57.60
2018-05-26T19:55:22.367Z,57.60
2018-05-26T19:57:50.609Z,57.80
2018-05-26T20:00:18.858Z,57.70
2018-05-26T20:02:47.109Z,57.60
2018-05-26T20:05:15.418Z,57.50
2018-05-26T20:07:43.694Z,57.60
2018-05-26T20:10:11.927Z,57.60
2018-05-26T20:12:40.951Z,57.60
2018-05-26T20:15:09.193Z,57.60
2018-05-26T20:17:38.947Z,57.70
2018-05-26T20:20:08.453Z,57.70
2018-05-26T20:22:36.711Z,57.70
2018-05-26T20:25:04.969Z,57.90
2018-05-26T20:27:33.987Z,57.90
2018-05-26T20:30:02.223Z,58.60
2018-05-26T20:32:31.247Z,57.80
2018-05-26T20:34:59.589Z,57.80
2018-05-26T20:37:28.600Z,58.50
2018-05-26T20:39:56.838Z,58.50
2018-05-26T20:42:25.187Z,58.80
2018-05-26T20:44:53.445Z,58.90
2018-05-26T20:47:21.696Z,59.30
2018-05-26T20:49:50.000Z,59.30
2018-05-26T20:52:18.271Z,59.70
2018-05-26T20:54:46.538Z,59.80
2018-05-26T20:57:15.159Z,60.10
2018-05-26T20:59:43.417Z,60.80
2018-05-26T21:02:11.693Z,61.30
2018-05-26T21:04:39.935Z,61.60
2018-05-26T21:07:08.235Z,62.10
2018-05-26T21:09:37.365Z,62.20
2018-05-26T21:12:05.710Z,62.60
2018-05-26T21:14:33.956Z,62.90
2018-05-26T21:17:02.192Z,63.30
2018-05-26T21:19:30.541Z,63.10
2018-05-26T21:21:58.795Z,63.30
2018-05-26T21:24:27.027Z,63.30
2018-05-26T21:26:55.340Z,64.10
2018-05-26T21:29:23.641Z,64.80
2018-05-26T21:31:51.916Z,64.80
2018-05-26T21:34:20.159Z,65.60
2018-05-26T21:36:49.182Z,66.40
2018-05-26T21:39:17.478Z,66.40
2018-05-26T21:41:45.737Z,66.80
2018-05-26T21:44:13.994Z,66.60
2018-05-26T21:46:42.237Z,67.00
2018-05-26T21:49:11.274Z,66.90
2018-05-26T21:51:39.513Z,66.90
2018-05-26T21:54:09.357Z,67.80
2018-05-26T21:56:37.630Z,67.80
2018-05-26T21:59:06.259Z,68.00
2018-05-26T22:01:34.502Z,68.40
2018-05-26T22:04:02.745Z,68.90
2018-05-26T22:06:30.983Z,69.10
2018-05-26T22:08:59.311Z,69.40
2018-05-26T22:11:27.561Z,69.40
2018-05-26T22:13:56.596Z,69.90
2018-05-26T22:16:24.840Z,69.90
2018-05-26T22:18:53.112Z,70.00
2018-05-26T22:21:21.361Z,70.60
2018-05-26T22:23:49.591Z,70.70
2018-05-26T22:26:17.839Z,70.80
2018-05-26T22:28:46.076Z,71.60
2018-05-26T22:31:14.407Z,71.70
2018-05-26T22:33:42.698Z,72.30
2018-05-26T22:36:10.960Z,72.60
2018-05-26T22:38:39.216Z,72.70
2018-05-26T22:41:07.517Z,72.70
2018-05-26T22:43:35.752Z,73.00
2018-05-26T22:46:04.786Z,73.50
2018-05-26T22:48:33.002Z,73.50
2018-05-26T22:51:01.337Z,73.60
2018-05-26T22:53:29.801Z,74.10
2018-05-26T22:55:58.775Z,74.50
2018-05-26T22:58:27.085Z,74.50
2018-05-26T23:00:55.327Z,74.60
2018-05-26T23:03:23.577Z,74.90
2018-05-26T23:05:51.891Z,75.10
2018-05-26T23:08:20.086Z,75.40
2018-05-26T23:10:49.172Z,75.70
2018-05-26T23:13:17.451Z,75.90
2018-05-26T23:15:46.105Z,75.80
2018-05-26T23:18:15.109Z,76.30
2018-05-26T23:20:43.409Z,76.30
2018-05-26T23:23:11.647Z,76.50
2018-05-26T23:25:39.952Z,76.50
2018-05-26T23:28:08.231Z,76.90
2018-05-26T23:30:36.534Z,76.90
2018-05-26T23:33:04.786Z,77.00
2018-05-26T23:35:33.074Z,77.40
2018-05-26T23:38:01.341Z,77.40
2018-05-26T23:40:29.616Z,77.50
2018-05-26T23:42:57.885Z,77.60
2018-05-26T23:45:26.153Z,77.90
2018-05-26T23:47:54.441Z,78.10
2018-05-26T23:50:22.717Z,78.40
2018-05-26T23:52:50.970Z,78.50
2018-05-26T23:55:19.256Z,78.60
2018-05-26T23:57:47.541Z,78.20
